Time;durP1;ratioP1;P1;durP2;ratioP2;P2;SDS_P1;SDS_P2;PMS_P1;PMS_P2;Temp;Humidity;BMP_temperature;BMP_pressure;BME280_temperature;BME280_humidity;BME280_pressure;Samples;Min_cycle;Max_cycle;Signal;HPM_P1;HPM_P2
2023/03/31 00:01:06;;;;;;;37.88;5.35;;;;;;;9.84;100.00;100146.47;5007836;28;20041;-78
2023/03/31 00:03:37;;;;;;;30.27;5.20;;;;;;;9.82;100.00;100142.19;4999224;28;20184;-80
2023/03/31 00:06:04;;;;;;;26.40;4.95;;;;;;;9.77;100.00;100133.66;5009420;28;20755;-81
2023/03/31 00:08:34;;;;;;;37.50;6.30;;;;;;;9.75;100.00;100125.75;5022911;28;20033;-80
2023/03/31 00:11:02;;;;;;;24.42;5.03;;;;;;;9.73;100.00;100132.09;5027236;28;20072;-80
2023/03/31 00:13:29;;;;;;;29.02;5.25;;;;;;;9.72;100.00;100130.41;5028785;28;20136;-79
2023/03/31 00:16:01;;;;;;;33.40;5.03;;;;;;;9.74;100.00;100116.00;5024928;28;20128;-79
2023/03/31 00:18:28;;;;;;;40.05;5.90;;;;;;;9.77;100.00;100112.31;4999956;28;20025;-80
2023/03/31 00:21:01;;;;;;;28.75;5.20;;;;;;;9.76;100.00;100105.25;5010908;28;20115;-80
2023/03/31 00:23:27;;;;;;;32.17;5.53;;;;;;;9.75;100.00;100106.19;5022557;28;20033;-81
2023/03/31 00:25:54;;;;;;;31.58;5.38;;;;;;;9.73;100.00;100100.13;5023871;28;20052;-81
2023/03/31 00:28:21;;;;;;;29.45;6.70;;;;;;;9.69;100.00;100095.00;5029093;28;20033;-80
2023/03/31 00:30:48;;;;;;;30.80;5.18;;;;;;;9.65;100.00;100077.50;5002541;28;20050;-80
2023/03/31 00:33:15;;;;;;;34.90;7.10;;;;;;;9.63;100.00;100078.53;4994016;28;20038;-81
2023/03/31 00:35:44;;;;;;;24.15;7.88;;;;;;;9.61;100.00;100065.31;4994600;28;20033;-81
2023/03/31 00:38:12;;;;;;;31.45;6.50;;;;;;;9.61;100.00;100059.97;5008231;28;20099;-79
2023/03/31 00:40:58;;;;;;;31.58;6.60;;;;;;;9.68;100.00;100055.13;5008564;28;20037;-79
2023/03/31 00:43:33;;;;;;;17.63;4.88;;;;;;;9.73;100.00;100057.47;5036100;28;20033;-80
2023/03/31 00:46:24;;;;;;;24.08;5.35;;;;;;;9.79;100.00;100051.78;5029950;28;20399;-79
2023/03/31 00:48:57;;;;;;;27.35;5.55;;;;;;;9.83;100.00;100042.59;5003661;28;20100;-79
2023/03/31 00:51:26;;;;;;;27.92;6.97;;;;;;;9.87;100.00;100028.97;5004095;28;20037;-80
2023/03/31 00:53:59;;;;;;;27.13;5.40;;;;;;;9.90;100.00;100022.59;4993409;28;20046;-79
2023/03/31 00:56:29;;;;;;;17.38;4.57;;;;;;;9.96;100.00;100021.34;5027634;28;20053;-79
2023/03/31 00:58:58;;;;;;;24.75;5.25;;;;;;;10.02;100.00;100015.59;5020911;28;20040;-79
2023/03/31 01:01:25;;;;;;;20.67;5.15;;;;;;;10.10;100.00;100013.25;4992749;28;20483;-80
2023/03/31 01:03:53;;;;;;;19.67;3.83;;;;;;;10.19;100.00;99995.78;4998390;28;20124;-79
2023/03/31 01:06:20;;;;;;;19.70;4.22;;;;;;;10.29;100.00;100002.22;5010324;28;20040;-78
2023/03/31 01:08:48;;;;;;;22.30;5.13;;;;;;;10.31;100.00;99989.66;4993801;28;20046;-81
2023/03/31 01:11:19;;;;;;;22.45;4.20;;;;;;;10.31;100.00;99992.34;4995823;28;20021;-81
2023/03/31 01:13:49;;;;;;;19.00;3.80;;;;;;;10.31;100.00;99995.00;4982672;28;20467;-79
2023/03/31 01:16:17;;;;;;;21.10;4.28;;;;;;;10.38;100.00;99990.09;5010763;28;20604;-79
2023/03/31 01:18:48;;;;;;;16.52;3.58;;;;;;;10.45;100.00;99986.03;5012741;28;20103;-79
2023/03/31 01:21:17;;;;;;;16.88;4.00;;;;;;;10.54;100.00;99974.75;4965471;28;20187;-80
2023/03/31 01:24:10;;;;;;;15.73;4.30;;;;;;;10.66;100.00;99968.56;5031336;28;20109;-78
2023/03/31 01:27:14;;;;;;;20.67;3.97;;;;;;;10.75;100.00;99964.38;5035967;28;20049;-80
2023/03/31 01:29:58;;;;;;;19.05;3.58;;;;;;;10.77;100.00;99959.81;5028507;28;20044;-79
2023/03/31 01:32:33;;;;;;;17.60;4.60;;;;;;;10.79;100.00;99941.88;5004514;28;20037;-79
2023/03/31 01:35:25;;;;;;;19.95;4.43;;;;;;;10.83;100.00;99943.34;5036136;28;20437;-78
2023/03/31 01:38:18;;;;;;;18.23;4.47;;;;;;;10.83;100.00;99931.81;4991229;28;20124;-78
2023/03/31 01:41:06;;;;;;;21.73;4.60;;;;;;;10.85;100.00;99930.75;4995649;28;22004;-78
2023/03/31 01:43:55;;;;;;;14.52;4.20;;;;;;;10.84;100.00;99918.34;5021139;28;20037;-79
2023/03/31 01:46:38;;;;;;;20.23;5.28;;;;;;;10.81;100.00;99910.56;5010072;28;20061;-82
2023/03/31 01:49:25;;;;;;;20.15;6.22;;;;;;;10.79;100.00;99904.50;4997795;28;20026;-78
2023/03/31 01:52:35;;;;;;;23.17;5.68;;;;;;;10.78;100.00;99897.44;4997474;28;20036;-78
2023/03/31 01:55:20;;;;;;;20.52;6.53;;;;;;;10.76;100.00;99894.00;4942716;28;20027;-79
2023/03/31 01:58:07;;;;;;;22.40;7.03;;;;;;;10.72;100.00;99887.19;5004273;28;20075;-80
2023/03/31 02:00:41;;;;;;;19.48;5.82;;;;;;;10.71;100.00;99879.28;5010742;28;20053;-80
2023/03/31 02:03:20;;;;;;;18.88;6.07;;;;;;;10.72;100.00;99881.00;5003853;28;20048;-80
2023/03/31 02:05:57;;;;;;;22.95;6.45;;;;;;;10.72;100.00;99879.19;5024433;28;20536;-80
2023/03/31 02:08:29;;;;;;;19.77;7.40;;;;;;;10.73;100.00;99867.53;5016064;28;20086;-79
2023/03/31 02:10:59;;;;;;;20.27;5.95;;;;;;;10.77;100.00;99865.50;5015509;28;20025;-78
2023/03/31 02:13:27;;;;;;;20.20;6.68;;;;;;;10.78;100.00;99854.72;4995746;28;20674;-80
2023/03/31 02:16:04;;;;;;;21.58;6.50;;;;;;;10.81;100.00;99859.84;4992139;28;20045;-79
2023/03/31 02:18:37;;;;;;;23.60;7.03;;;;;;;10.78;100.00;99844.03;4992144;28;20042;-79
2023/03/31 02:21:06;;;;;;;32.00;7.75;;;;;;;10.79;100.00;99836.88;5009868;28;20030;-79
2023/03/31 02:23:36;;;;;;;27.60;6.65;;;;;;;10.76;100.00;99832.63;4995860;28;20038;-78
2023/03/31 02:26:03;;;;;;;29.90;7.45;;;;;;;10.68;100.00;99832.31;5008610;28;20072;-79
2023/03/31 02:28:30;;;;;;;20.05;7.03;;;;;;;10.59;100.00;99823.16;5006204;28;20100;-79
2023/03/31 02:31:26;;;;;;;24.65;6.50;;;;;;;10.51;100.00;99816.66;5012249;28;20021;-79
2023/03/31 02:33:52;;;;;;;27.15;7.38;;;;;;;10.43;100.00;99817.19;5006293;28;20065;-78
2023/03/31 02:36:20;;;;;;;21.73;7.03;;;;;;;10.36;100.00;99810.59;5000782;28;20129;-79
2023/03/31 02:39:06;;;;;;;32.75;7.43;;;;;;;10.33;100.00;99803.69;5005040;28;20137;-79
2023/03/31 02:41:32;;;;;;;30.10;7.35;;;;;;;10.28;100.00;99792.44;4992606;28;20030;-81
2023/03/31 02:43:59;;;;;;;34.20;7.25;;;;;;;10.26;100.00;99791.69;5007397;28;20457;-79
2023/03/31 02:46:26;;;;;;;34.45;8.13;;;;;;;10.24;100.00;99785.63;4963111;28;20037;-81
2023/03/31 02:48:54;;;;;;;26.70;8.48;;;;;;;10.21;100.00;99777.81;5017343;28;20458;-80
2023/03/31 02:51:46;;;;;;;31.23;7.55;;;;;;;10.19;100.00;99766.41;4993946;28;20076;-80
2023/03/31 02:54:41;;;;;;;25.02;7.95;;;;;;;10.17;100.00;99761.19;4993973;28;20139;-80
2023/03/31 02:57:40;;;;;;;31.98;9.30;;;;;;;10.16;100.00;99750.63;5027677;28;20065;-80
2023/03/31 03:00:21;;;;;;;38.13;8.70;;;;;;;10.15;100.00;99746.25;5006041;28;20496;-80
2023/03/31 03:03:17;;;;;;;41.15;9.48;;;;;;;10.16;100.00;99731.94;5003491;28;20104;-81
2023/03/31 03:06:16;;;;;;;28.95;9.18;;;;;;;10.16;100.00;99726.63;4994751;28;20030;-81
2023/03/31 03:09:06;;;;;;;37.80;9.30;;;;;;;10.13;100.00;99719.69;5003345;28;20042;-81
2023/03/31 03:11:43;;;;;;;35.28;9.27;;;;;;;10.08;100.00;99706.72;5012793;28;20038;-81
2023/03/31 03:14:31;;;;;;;31.08;9.20;;;;;;;10.07;100.00;99699.66;5011495;28;20421;-81
2023/03/31 03:17:24;;;;;;;30.75;8.80;;;;;;;10.06;100.00;99700.63;5013609;28;20131;-81
2023/03/31 03:19:58;;;;;;;31.77;8.32;;;;;;;10.03;100.00;99692.84;4995127;28;20026;-82
2023/03/31 03:22:24;;;;;;;29.38;8.90;;;;;;;10.02;100.00;99684.94;4995834;28;20033;-84
2023/03/31 03:24:51;;;;;;;31.25;8.10;;;;;;;9.98;100.00;99671.00;5019625;28;20033;-82
2023/03/31 03:27:18;;;;;;;24.17;6.90;;;;;;;9.96;100.00;99667.59;5030226;28;20044;-82
2023/03/31 03:29:44;;;;;;;27.65;7.00;;;;;;;9.94;100.00;99660.66;5030813;28;20036;-82
2023/03/31 03:32:11;;;;;;;27.85;6.40;;;;;;;9.89;100.00;99653.00;5023781;28;20029;-84
2023/03/31 03:34:38;;;;;;;29.58;7.47;;;;;;;9.89;100.00;99653.81;5033110;28;20037;-85
2023/03/31 03:37:04;;;;;;;21.17;6.63;;;;;;;9.88;100.00;99652.16;5044889;28;20491;-83
2023/03/31 03:39:31;;;;;;;23.75;6.88;;;;;;;9.87;100.00;99637.09;5016016;28;20033;-82
2023/03/31 03:42:16;;;;;;;25.73;5.95;;;;;;;9.89;100.00;99634.31;5004081;28;20091;-81
2023/03/31 03:45:01;;;;;;;30.58;6.32;;;;;;;9.85;100.00;99615.03;5020436;28;20043;-82
2023/03/31 03:47:28;;;;;;;29.40;6.90;;;;;;;9.83;100.00;99629.44;5045554;28;20133;-82
2023/03/31 03:49:54;;;;;;;25.27;7.22;;;;;;;9.83;100.00;99632.13;5032971;28;20104;-81
2023/03/31 03:52:20;;;;;;;34.58;7.50;;;;;;;9.84;100.00;99623.13;5025241;28;20087;-83
2023/03/31 03:54:47;;;;;;;25.05;7.25;;;;;;;9.85;100.00;99619.53;5014926;28;20033;-83
2023/03/31 03:57:13;;;;;;;24.15;6.50;;;;;;;9.83;100.00;99613.44;5031758;28;20045;-83
2023/03/31 03:59:39;;;;;;;30.98;8.80;;;;;;;9.82;100.00;99603.75;5024383;28;20037;-82
2023/03/31 04:02:27;;;;;;;26.90;7.32;;;;;;;9.81;100.00;99589.56;5025860;28;20383;-81
2023/03/31 04:04:53;;;;;;;24.30;7.47;;;;;;;9.77;100.00;99590.75;5027864;28;20067;-80
2023/03/31 04:07:19;;;;;;;24.30;6.82;;;;;;;9.75;100.00;99582.03;5011210;28;20133;-81
2023/03/31 04:09:46;;;;;;;30.67;7.32;;;;;;;9.73;100.00;99578.63;5022801;28;20237;-82
2023/03/31 04:12:12;;;;;;;22.95;6.82;;;;;;;9.68;100.00;99565.63;5026137;28;20079;-81
2023/03/31 04:14:39;;;;;;;22.88;6.97;;;;;;;9.68;100.00;99562.09;5011537;28;21456;-82
2023/03/31 04:17:31;;;;;;;26.00;7.20;;;;;;;9.68;100.00;99549.63;5020256;28;20108;-81
2023/03/31 04:20:17;;;;;;;26.55;7.88;;;;;;;9.65;100.00;99546.31;5006033;28;20022;-81
2023/03/31 04:22:46;;;;;;;24.27;7.55;;;;;;;9.61;100.00;99543.03;5011207;28;20037;-83
2023/03/31 04:25:16;;;;;;;25.75;5.60;;;;;;;9.61;100.00;99527.03;5009005;28;20152;-83
2023/03/31 04:27:57;;;;;;;26.92;5.88;;;;;;;9.57;100.00;99527.41;5009727;28;20038;-84
2023/03/31 04:30:29;;;;;;;16.48;5.15;;;;;;;9.57;100.00;99512.25;5008931;28;20039;-83
2023/03/31 04:32:59;;;;;;;19.50;4.38;;;;;;;9.57;100.00;99509.59;5002776;28;20554;-84
2023/03/31 04:35:48;;;;;;;17.95;5.28;;;;;;;9.54;100.00;99504.47;5009547;28;20123;-82
2023/03/31 04:38:18;;;;;;;19.83;5.03;;;;;;;9.53;100.00;99502.78;5009566;28;20025;-82
2023/03/31 04:40:50;;;;;;;23.40;5.38;;;;;;;9.54;100.00;99483.16;4999681;28;20049;-81
2023/03/31 04:43:17;;;;;;;24.15;5.18;;;;;;;9.53;100.00;99484.13;4997527;28;20534;-83
2023/03/31 04:45:44;;;;;;;22.75;6.45;;;;;;;9.53;100.00;99484.13;5017556;28;20061;-83
2023/03/31 04:48:30;;;;;;;19.27;5.10;;;;;;;9.55;100.00;99468.88;5009737;28;20034;-83
2023/03/31 04:50:56;;;;;;;23.35;6.57;;;;;;;9.56;100.00;99470.59;4994188;28;20042;-83
2023/03/31 04:53:23;;;;;;;19.55;5.78;;;;;;;9.61;100.00;99459.59;4985334;28;20042;-82
2023/03/31 04:55:50;;;;;;;24.33;5.25;;;;;;;9.59;100.00;99454.38;5003619;28;20029;-81
2023/03/31 04:58:16;;;;;;;18.75;5.63;;;;;;;9.61;100.00;99441.78;4999504;28;20045;-84
2023/03/31 05:00:43;;;;;;;24.13;6.85;;;;;;;9.60;100.00;99440.09;5021588;28;20038;-82
2023/03/31 05:03:09;;;;;;;32.13;7.63;;;;;;;9.62;100.00;99430.19;4995980;28;20038;-83
2023/03/31 05:05:36;;;;;;;22.08;6.97;;;;;;;9.62;100.00;99432.84;4989619;28;20041;-83
2023/03/31 05:08:03;;;;;;;17.92;5.80;;;;;;;9.63;100.00;99434.53;5013108;28;20545;-81
2023/03/31 05:10:29;;;;;;;22.30;6.32;;;;;;;9.67;100.00;99419.16;5006355;28;20066;-81
2023/03/31 05:12:57;;;;;;;19.67;5.70;;;;;;;9.73;100.00;99423.19;5006860;28;20120;-81
2023/03/31 05:15:24;;;;;;;25.00;5.60;;;;;;;9.70;100.00;99408.28;5009548;28;20081;-81
2023/03/31 05:17:51;;;;;;;18.25;6.00;;;;;;;9.73;100.00;99407.19;5016806;28;20045;-81
2023/03/31 05:20:18;;;;;;;20.42;6.70;;;;;;;9.76;100.00;99401.66;5008852;28;20034;-80
2023/03/31 05:22:47;;;;;;;21.52;5.40;;;;;;;9.78;100.00;99395.22;4992601;28;20038;-81
2023/03/31 05:25:19;;;;;;;26.17;6.18;;;;;;;9.83;100.00;99394.91;5028888;28;20344;-80
2023/03/31 05:27:47;;;;;;;25.92;5.60;;;;;;;9.79;100.00;99388.09;5022502;28;20042;-80
2023/03/31 05:30:14;;;;;;;23.38;5.40;;;;;;;9.80;100.00;99384.44;5011097;28;20034;-80
2023/03/31 05:32:45;;;;;;;20.08;4.80;;;;;;;9.82;100.00;99390.50;5032723;28;20141;-82
2023/03/31 05:35:11;;;;;;;16.95;4.93;;;;;;;9.83;100.00;99392.22;5008230;28;20663;-81
2023/03/31 05:37:37;;;;;;;15.38;4.90;;;;;;;9.84;100.00;99377.91;5007253;28;20042;-80
2023/03/31 05:40:04;;;;;;;16.08;4.70;;;;;;;9.85;100.00;99379.63;5011180;28;20085;-81
2023/03/31 05:42:31;;;;;;;20.05;4.40;;;;;;;9.86;100.00;99376.00;5011959;28;20033;-81
2023/03/31 05:44:57;;;;;;;17.05;4.25;;;;;;;9.85;100.00;99369.81;5012878;28;20048;-80
2023/03/31 05:47:23;;;;;;;19.05;4.13;;;;;;;9.88;100.00;99368.75;5014480;28;20038;-82
2023/03/31 05:49:50;;;;;;;16.90;4.00;;;;;;;9.90;100.00;99358.81;5015398;28;20076;-81
2023/03/31 05:52:16;;;;;;;16.60;4.30;;;;;;;9.91;100.00;99357.84;5010445;28;20065;-81
2023/03/31 05:54:45;;;;;;;19.65;5.20;;;;;;;9.94;100.00;99356.75;5012993;28;20096;-80
2023/03/31 05:57:11;;;;;;;16.40;4.43;;;;;;;9.90;100.00;99342.81;5008557;28;20049;-80
2023/03/31 06:03:02;;;;;;;14.70;3.78;;;;;;;9.92;100.00;99343.56;5011089;28;20034;-80
2023/03/31 06:05:29;;;;;;;18.25;3.80;;;;;;;9.97;100.00;99328.06;5010018;28;20569;-79
2023/03/31 06:07:56;;;;;;;18.10;3.67;;;;;;;10.00;100.00;99338.47;5010826;28;20045;-81
2023/03/31 06:10:23;;;;;;;11.98;2.97;;;;;;;9.98;100.00;99319.06;5010778;28;20038;-82
2023/03/31 06:12:49;;;;;;;13.00;3.08;;;;;;;10.00;100.00;99334.97;4994782;28;20087;-82
2023/03/31 06:15:16;;;;;;;15.27;3.38;;;;;;;9.99;100.00;99328.78;5009451;28;20065;-82
2023/03/31 06:17:45;;;;;;;12.52;3.45;;;;;;;9.98;100.00;99323.56;5009520;28;20094;-81
2023/03/31 06:20:11;;;;;;;13.88;3.90;;;;;;;10.00;100.00;99324.28;5008946;28;20022;-77
2023/03/31 06:22:38;;;;;;;13.85;3.63;;;;;;;10.00;100.00;99321.63;5012254;28;20042;-78
2023/03/31 06:25:05;;;;;;;10.80;3.20;;;;;;;10.02;100.00;99328.53;5011377;28;20036;-76
2023/03/31 06:27:31;;;;;;;10.07;2.90;;;;;;;10.05;100.00;99322.13;5012688;28;20042;-76
2023/03/31 06:29:57;;;;;;;13.82;3.85;;;;;;;10.04;100.00;99315.91;5011567;28;20041;-76
2023/03/31 06:32:24;;;;;;;12.77;3.25;;;;;;;10.01;100.00;99313.50;4991660;28;20034;-76
2023/03/31 06:34:50;;;;;;;8.57;2.90;;;;;;;10.03;100.00;99314.25;4998507;28;20396;-76
2023/03/31 06:37:17;;;;;;;12.77;3.10;;;;;;;9.98;100.00;99313.75;5006216;28;20041;-75
2023/03/31 06:39:43;;;;;;;9.52;3.05;;;;;;;9.99;100.00;99304.78;5008554;28;20034;-75
2023/03/31 06:42:10;;;;;;;12.68;3.50;;;;;;;9.95;100.00;99308.63;5021965;28;20061;-74
2023/03/31 06:44:40;;;;;;;13.07;3.60;;;;;;;9.95;100.00;99299.81;5007953;28;20425;-76
2023/03/31 06:47:06;;;;;;;11.82;4.28;;;;;;;9.92;100.00;99300.06;5021397;28;20054;-75
2023/03/31 06:49:32;;;;;;;9.32;2.72;;;;;;;9.92;100.00;99298.22;5006024;28;20112;-76
2023/03/31 06:52:00;;;;;;;15.63;3.10;;;;;;;9.94;100.00;99288.31;5003595;28;20391;-75
2023/03/31 06:54:26;;;;;;;10.88;2.65;;;;;;;9.95;100.00;99284.66;5008619;28;20033;-79
2023/03/31 06:56:52;;;;;;;11.07;2.80;;;;;;;9.95;100.00;99289.97;5008871;28;20030;-74
2023/03/31 06:59:19;;;;;;;13.65;2.97;;;;;;;9.96;100.00;99286.34;5007863;28;20046;-77
2023/03/31 07:01:47;;;;;;;10.60;3.13;;;;;;;9.95;100.00;99283.81;5006512;28;20117;-77
2023/03/31 07:04:14;;;;;;;11.65;2.90;;;;;;;9.99;100.00;99295.91;5006976;28;20105;-76
2023/03/31 07:06:40;;;;;;;9.73;3.78;;;;;;;9.98;100.00;99295.09;5008157;28;20064;-76
2023/03/31 07:09:06;;;;;;;10.10;2.50;;;;;;;9.92;100.00;99282.25;5004338;28;20042;-75
2023/03/31 07:11:32;;;;;;;11.52;2.70;;;;;;;9.95;100.00;99286.47;5003734;28;20092;-77
2023/03/31 07:13:59;;;;;;;9.23;3.55;;;;;;;9.94;100.00;99282.13;4992538;28;20050;-77
2023/03/31 07:16:25;;;;;;;9.68;2.45;;;;;;;9.90;100.00;99284.19;5028522;28;20045;-76
2023/03/31 07:18:53;;;;;;;10.20;2.80;;;;;;;9.90;100.00;99277.03;5024653;28;20498;-77
2023/03/31 07:21:20;;;;;;;11.43;2.50;;;;;;;9.94;100.00;99282.13;5030414;28;20034;-75
2023/03/31 07:23:46;;;;;;;13.43;2.72;;;;;;;9.97;100.00;99274.75;5028286;28;20406;-79
2023/03/31 07:26:12;;;;;;;8.45;3.00;;;;;;;10.02;100.00;99279.69;4992449;28;20077;-75
2023/03/31 07:28:39;;;;;;;12.93;2.80;;;;;;;10.01;100.00;99268.19;5012248;28;20041;-76
2023/03/31 07:31:11;;;;;;;11.35;2.88;;;;;;;10.07;100.00;99273.03;5009081;28;20502;-77
2023/03/31 07:33:37;;;;;;;9.93;2.65;;;;;;;10.09;100.00;99260.44;5012837;28;20041;-77
2023/03/31 07:36:07;;;;;;;8.38;2.78;;;;;;;10.12;100.00;99274.50;5008751;28;20033;-77
2023/03/31 07:38:33;;;;;;;11.25;2.92;;;;;;;10.14;100.00;99272.53;5016639;28;20048;-75
2023/03/31 07:41:00;;;;;;;9.93;2.70;;;;;;;10.12;100.00;99264.69;5012622;28;20108;-77
2023/03/31 07:43:26;;;;;;;7.93;2.85;;;;;;;10.21;100.00;99263.09;5015284;28;20055;-76
2023/03/31 07:45:53;;;;;;;8.73;3.95;;;;;;;10.22;100.00;99270.97;5012075;28;20088;-74
2023/03/31 07:48:19;;;;;;;10.65;3.03;;;;;;;10.23;100.00;99266.50;5028446;28;20033;-77
2023/03/31 07:50:45;;;;;;;12.80;3.72;;;;;;;10.26;100.00;99264.44;5030060;28;20499;-77
2023/03/31 07:53:20;;;;;;;12.00;3.50;;;;;;;10.29;100.00;99260.69;5009440;28;20407;-77
2023/03/31 07:55:47;;;;;;;14.55;3.17;;;;;;;10.31;100.00;99263.25;5027522;28;20080;-76
2023/03/31 07:58:14;;;;;;;10.38;3.80;;;;;;;10.35;100.00;99257.56;5014618;28;20029;-76
2023/03/31 08:00:40;;;;;;;14.60;3.88;;;;;;;10.46;100.00;99257.53;5026880;28;20026;-77
2023/03/31 08:03:06;;;;;;;14.35;3.80;;;;;;;10.56;100.00;99254.13;5028701;28;20071;-77
2023/03/31 08:05:33;;;;;;;15.40;4.30;;;;;;;10.55;100.00;99255.09;5005584;28;20151;-76
2023/03/31 08:07:59;;;;;;;16.08;4.55;;;;;;;10.64;100.00;99251.69;4977384;28;20056;-78
2023/03/31 08:10:27;;;;;;;14.07;4.60;;;;;;;10.74;100.00;99252.66;5018611;28;20603;-78
2023/03/31 08:12:54;;;;;;;18.33;5.40;;;;;;;10.84;100.00;99240.22;5031105;28;20079;-76
2023/03/31 08:15:20;;;;;;;17.58;5.07;;;;;;;10.90;100.00;99243.38;5018471;28;20068;-75
2023/03/31 08:17:47;;;;;;;14.43;4.25;;;;;;;11.03;100.00;99244.03;5005576;28;20056;-76
2023/03/31 08:20:14;;;;;;;13.52;4.40;;;;;;;10.99;100.00;99231.94;5030075;28;20033;-77
2023/03/31 08:22:40;;;;;;;13.57;4.82;;;;;;;10.98;100.00;99230.25;5031134;28;20038;-77
2023/03/31 08:25:08;;;;;;;12.93;4.50;;;;;;;11.03;100.00;99217.34;5012858;28;20045;-79
2023/03/31 08:27:35;;;;;;;17.33;5.18;;;;;;;11.07;100.00;99216.13;5013137;28;20394;-76
2023/03/31 08:30:03;;;;;;;20.30;5.25;;;;;;;11.16;100.00;99218.00;5007124;28;20041;-78
2023/03/31 08:32:34;;;;;;;20.80;5.90;;;;;;;11.18;100.00;99220.56;5029070;28;20521;-76
2023/03/31 08:35:01;;;;;;;14.05;5.65;;;;;;;11.06;100.00;99217.09;5012041;28;20116;-75
2023/03/31 08:37:27;;;;;;;18.60;6.07;;;;;;;11.01;100.00;99203.28;4979626;28;20060;-77
2023/03/31 08:39:54;;;;;;;22.23;6.45;;;;;;;10.84;100.00;99207.34;5030745;28;20048;-76
2023/03/31 08:42:27;;;;;;;29.73;8.38;;;;;;;10.73;100.00;99200.22;5010982;28;20037;-77
2023/03/31 08:45:03;;;;;;;24.08;7.93;;;;;;;10.59;100.00;99200.53;5026381;28;20548;-79
2023/03/31 08:47:30;;;;;;;25.73;7.78;;;;;;;10.52;100.00;99208.16;5034346;28;20297;-78
2023/03/31 08:49:59;;;;;;;20.58;8.23;;;;;;;10.45;100.00;99210.47;4992917;28;20139;-76
2023/03/31 08:52:49;;;;;;;27.30;8.38;;;;;;;10.51;100.00;99203.81;5026028;28;20085;-79
2023/03/31 08:55:39;;;;;;;24.75;9.23;;;;;;;10.51;100.00;99194.94;4992655;28;20046;-79
2023/03/31 08:58:24;;;;;;;19.80;8.70;;;;;;;10.52;100.00;99191.31;4999183;28;20061;-81
2023/03/31 09:00:58;;;;;;;30.02;9.23;;;;;;;10.50;100.00;99182.59;5005457;28;20033;-81
2023/03/31 09:03:41;;;;;;;30.50;7.97;;;;;;;10.52;100.00;99180.66;5004928;28;20045;-82
2023/03/31 09:06:13;;;;;;;32.13;7.95;;;;;;;10.56;100.00;99187.44;5019131;28;20029;-80
2023/03/31 09:08:43;;;;;;;32.78;8.10;;;;;;;10.54;100.00;99198.22;5020049;28;20498;-79
2023/03/31 09:11:15;;;;;;;30.15;8.18;;;;;;;10.45;100.00;99178.47;4995779;28;20046;-78
2023/03/31 09:14:05;;;;;;;35.92;6.95;;;;;;;10.56;100.00;99180.25;5020035;28;20036;-76
2023/03/31 09:16:45;;;;;;;24.40;5.57;;;;;;;10.64;100.00;99179.63;5005360;28;20057;-77
2023/03/31 09:19:47;;;;;;;29.63;7.50;;;;;;;10.83;100.00;99173.63;5023784;28;20490;-79
2023/03/31 09:22:24;;;;;;;33.40;7.28;;;;;;;10.99;100.00;99184.72;4983312;28;20104;-82
2023/03/31 09:24:53;;;;;;;35.03;6.63;;;;;;;11.17;100.00;99174.31;5003099;28;20060;-78
2023/03/31 09:27:20;;;;;;;32.72;6.60;;;;;;;11.44;100.00;99175.59;5020895;28;20037;-77
2023/03/31 09:30:10;;;;;;;27.75;6.75;;;;;;;11.80;100.00;99163.56;5000559;28;20082;-75
2023/03/31 09:32:38;;;;;;;24.27;5.13;;;;;;;12.16;100.00;99158.66;5017485;28;20046;-79
2023/03/31 09:35:24;;;;;;;24.25;5.78;;;;;;;12.29;100.00;99142.34;5016743;28;20021;-79
2023/03/31 09:37:51;;;;;;;32.55;7.03;;;;;;;12.41;100.00;99149.28;5019239;28;20271;-83
2023/03/31 09:40:21;;;;;;;32.78;5.28;;;;;;;12.53;100.00;99152.66;5018119;28;20312;-76
2023/03/31 09:42:53;;;;;;;20.00;4.60;;;;;;;12.76;100.00;99150.56;5019235;28;20037;-77
2023/03/31 09:45:20;;;;;;;24.83;5.00;;;;;;;12.75;100.00;99143.53;5017595;28;20045;-76
2023/03/31 09:47:50;;;;;;;25.33;5.18;;;;;;;12.70;100.00;99145.78;5021098;28;20261;-76
2023/03/31 09:50:17;;;;;;;20.10;4.68;;;;;;;12.73;100.00;99145.50;4998901;28;20065;-75
2023/03/31 09:53:06;;;;;;;22.70;4.35;;;;;;;12.86;100.00;99144.38;5017642;28;20041;-75
2023/03/31 09:55:41;;;;;;;23.08;4.97;;;;;;;12.87;100.00;99138.03;4999327;28;20555;-74
2023/03/31 09:58:13;;;;;;;22.60;4.43;;;;;;;12.82;100.00;99141.13;4980960;28;20106;-77
2023/03/31 10:00:56;;;;;;;22.48;5.20;;;;;;;12.74;100.00;99127.59;4995328;28;20045;-76
2023/03/31 10:03:22;;;;;;;27.83;5.80;;;;;;;12.85;100.00;99132.81;5001951;28;20401;-75
2023/03/31 10:05:51;;;;;;;20.38;5.47;;;;;;;13.00;100.00;99146.63;4998614;28;21106;-75
2023/03/31 10:08:28;;;;;;;21.70;4.55;;;;;;;12.86;100.00;99133.66;5000653;28;20408;-75
2023/03/31 10:10:56;;;;;;;24.92;4.97;;;;;;;12.72;100.00;99122.38;5018104;28;20107;-78
2023/03/31 10:13:45;;;;;;;20.80;5.63;;;;;;;12.63;100.00;99130.41;5022266;28;20299;-76
2023/03/31 10:16:34;;;;;;;19.83;4.70;;;;;;;12.60;100.00;99102.13;5023973;28;20546;-75
2023/03/31 10:19:19;;;;;;;23.00;4.60;;;;;;;12.68;100.00;99120.97;5017874;28;20080;-75
2023/03/31 10:21:48;;;;;;;17.38;4.28;;;;;;;12.83;100.00;99115.22;5003002;28;20053;-75
2023/03/31 10:24:18;;;;;;;23.40;4.82;;;;;;;12.66;100.00;99063.22;5003135;28;20049;-76
2023/03/31 10:26:48;;;;;;;23.40;5.90;;;;;;;13.22;100.00;99104.44;5001807;28;20344;-73
2023/03/31 10:29:32;;;;;;;21.77;4.37;;;;;;;13.52;100.00;99120.31;5020476;28;20034;-75
2023/03/31 10:32:11;;;;;;;18.33;4.28;;;;;;;13.33;100.00;99102.47;5004359;28;20041;-76
2023/03/31 10:34:41;;;;;;;18.95;4.53;;;;;;;13.36;100.00;99109.34;5002227;28;20033;-76
2023/03/31 10:37:13;;;;;;;17.65;4.18;;;;;;;13.34;100.00;99106.84;4988585;28;20041;-77
2023/03/31 10:39:40;;;;;;;15.52;3.83;;;;;;;13.27;100.00;99099.47;5004299;28;20040;-75
2023/03/31 10:42:07;;;;;;;14.70;3.88;;;;;;;13.15;100.00;99096.97;5023194;28;20033;-77
2023/03/31 10:44:36;;;;;;;16.45;3.45;;;;;;;13.08;100.00;99095.84;5017124;28;20138;-74
2023/03/31 10:47:05;;;;;;;19.48;3.85;;;;;;;12.72;100.00;99098.28;5023966;28;20042;-73
2023/03/31 10:49:38;;;;;;;16.92;3.47;;;;;;;12.61;100.00;99093.06;5002007;28;20376;-75
2023/03/31 10:52:18;;;;;;;18.33;3.85;;;;;;;12.54;100.00;99071.41;5018011;28;20033;-76
2023/03/31 10:54:52;;;;;;;19.83;3.65;;;;;;;12.43;100.00;99089.41;5015249;28;20128;-76
2023/03/31 10:57:32;;;;;;;17.73;3.85;;;;;;;12.33;100.00;99094.75;5020647;28;20056;-78
2023/03/31 11:00:12;;;;;;;22.93;3.87;;;;;;;12.32;100.00;99087.69;5002907;28;20032;-79
2023/03/31 11:02:52;;;;;;;19.35;4.20;;;;;;;12.39;100.00;99083.50;5019947;28;20487;-76
2023/03/31 11:05:32;;;;;;;23.77;3.60;;;;;;;12.41;100.00;99095.75;4985217;28;20509;-77
2023/03/31 11:08:11;;;;;;;26.30;6.07;;;;;;;12.16;100.00;99091.78;5000743;28;20053;-77
2023/03/31 11:11:00;;;;;;;18.38;3.60;;;;;;;12.02;100.00;99093.03;5018515;28;20506;-78
2023/03/31 11:13:35;;;;;;;19.77;4.07;;;;;;;12.00;100.00;99095.00;5000468;28;20037;-74
2023/03/31 11:16:01;;;;;;;26.02;5.82;;;;;;;11.75;100.00;99101.63;5000216;28;20038;-75
2023/03/31 11:18:39;;;;;;;25.45;4.88;;;;;;;11.58;100.00;99094.25;5000688;28;20046;-74
2023/03/31 11:21:34;;;;;;;22.67;5.05;;;;;;;11.46;100.00;99085.47;4998644;28;20080;-73
2023/03/31 11:24:32;;;;;;;26.27;4.90;;;;;;;11.43;100.00;99101.78;4999690;28;20052;-74
2023/03/31 11:27:24;;;;;;;19.85;4.35;;;;;;;11.23;100.00;99106.16;4997627;28;20042;-73
2023/03/31 11:30:00;;;;;;;19.45;5.25;;;;;;;10.91;100.00;99051.03;4994938;28;20026;-75
2023/03/31 11:32:35;;;;;;;23.88;6.13;;;;;;;11.07;100.00;99071.94;5000424;28;20521;-76
2023/03/31 11:35:38;;;;;;;21.63;5.38;;;;;;;11.15;100.00;99071.28;4981158;28;20056;-76
2023/03/31 11:38:17;;;;;;;25.50;5.45;;;;;;;11.07;100.00;99077.28;4996074;28;20116;-74
2023/03/31 11:41:10;;;;;;;23.13;5.38;;;;;;;10.96;100.00;99077.31;4978417;28;20567;-77
2023/03/31 11:43:49;;;;;;;28.13;5.75;;;;;;;10.86;100.00;99086.13;4997508;28;20140;-75
2023/03/31 11:46:26;;;;;;;28.63;6.40;;;;;;;10.91;100.00;99076.88;4999204;28;20474;-75
2023/03/31 11:49:02;;;;;;;27.35;6.22;;;;;;;11.01;100.00;99067.09;4983582;28;20045;-76